Time;durP1;ratioP1;P1;durP2;ratioP2;P2;SDS_P1;SDS_P2;PMS_P1;PMS_P2;Temp;Humidity;BMP_temperature;BMP_pressure;BME280_temperature;BME280_humidity;BME280_pressure;Samples;Min_cycle;Max_cycle;Signal;HPM_P1;HPM_P2
2023/06/20 00:00:48;;;;;;;2.45;2.03;;;;;;;;;;5005021;28;20046;-61
2023/06/20 00:03:17;;;;;;;2.70;2.50;;;;;;;;;;5004464;28;20136;-61
2023/06/20 00:05:43;;;;;;;2.78;2.45;;;;;;;;;;5003982;28;20828;-61
2023/06/20 00:08:10;;;;;;;2.58;2.38;;;;;;;;;;5004601;28;20046;-61
2023/06/20 00:10:36;;;;;;;2.72;2.53;;;;;;;;;;5020838;28;20064;-61
2023/06/20 00:13:02;;;;;;;2.47;2.33;;;;;;;;;;5043698;28;20483;-61
2023/06/20 00:15:28;;;;;;;3.30;3.10;;;;;;;;;;5044168;28;20041;-61
2023/06/20 00:17:55;;;;;;;2.80;2.60;;;;;;;;;;5043644;28;20555;-61
2023/06/20 00:20:21;;;;;;;2.65;2.45;;;;;;;;;;5044322;28;20199;-61
2023/06/20 00:22:50;;;;;;;2.83;2.63;;;;;;;;;;5044218;28;20037;-61
2023/06/20 00:25:16;;;;;;;2.38;2.20;;;;;;;;;;5043149;28;20131;-61
2023/06/20 00:27:42;;;;;;;2.55;2.35;;;;;;;;;;5043809;28;20497;-61
2023/06/20 00:30:09;;;;;;;2.47;2.25;;;;;;;;;;5043879;28;20037;-61
2023/06/20 00:32:35;;;;;;;2.97;2.78;;;;;;;;;;5043686;28;20068;-61
2023/06/20 00:35:01;;;;;;;2.40;2.20;;;;;;;;;;5044085;28;20452;-61
2023/06/20 00:37:27;;;;;;;2.53;2.33;;;;;;;;;;5043710;28;20289;-61
2023/06/20 00:39:53;;;;;;;3.03;2.80;;;;;;;;;;5043412;28;20052;-61
2023/06/20 00:42:20;;;;;;;3.00;2.80;;;;;;;;;;5044217;28;20037;-61
2023/06/20 00:44:46;;;;;;;4.00;2.70;;;;;;;;;;5043980;28;20033;-61
2023/06/20 00:47:16;;;;;;;2.70;2.50;;;;;;;;;;5042803;28;20060;-61
2023/06/20 00:49:42;;;;;;;2.95;2.75;;;;;;;;;;5043492;28;20040;-62
2023/06/20 00:52:08;;;;;;;4.25;3.10;;;;;;;;;;5043506;28;20052;-61
2023/06/20 00:54:35;;;;;;;2.60;2.40;;;;;;;;;;5043539;28;20040;-61
2023/06/20 00:57:01;;;;;;;2.55;2.35;;;;;;;;;;5043876;28;20045;-61
2023/06/20 00:59:27;;;;;;;3.10;2.90;;;;;;;;;;5043202;28;20154;-61
2023/06/20 01:01:53;;;;;;;2.70;2.50;;;;;;;;;;5042978;28;20064;-61
2023/06/20 01:04:20;;;;;;;2.70;2.47;;;;;;;;;;5042852;28;20504;-61
2023/06/20 01:07:08;;;;;;;2.90;2.70;;;;;;;;;;5043421;28;20055;-61
2023/06/20 01:09:34;;;;;;;3.22;2.92;;;;;;;;;;5043789;28;20084;-61
2023/06/20 01:12:00;;;;;;;3.40;3.20;;;;;;;;;;5042922;28;20412;-61
2023/06/20 01:14:29;;;;;;;3.03;2.83;;;;;;;;;;5042426;28;20048;-61
2023/06/20 01:16:57;;;;;;;3.45;3.15;;;;;;;;;;5043089;28;20172;-61
2023/06/20 01:19:49;;;;;;;3.15;2.90;;;;;;;;;;5042938;28;20060;-61
2023/06/20 01:22:20;;;;;;;3.22;3.03;;;;;;;;;;5042171;28;20049;-61
2023/06/20 01:24:51;;;;;;;3.10;2.90;;;;;;;;;;5042394;28;20504;-61
2023/06/20 01:27:22;;;;;;;3.63;3.10;;;;;;;;;;5042723;28;20048;-61
2023/06/20 01:29:48;;;;;;;3.58;3.28;;;;;;;;;;5042517;28;20137;-62
2023/06/20 01:32:17;;;;;;;2.90;2.70;;;;;;;;;;5042742;28;20143;-62
2023/06/20 01:34:47;;;;;;;2.60;2.33;;;;;;;;;;5043200;28;20044;-62
2023/06/20 01:37:16;;;;;;;2.05;1.95;;;;;;;;;;5041789;28;20041;-62
2023/06/20 01:39:51;;;;;;;3.88;3.50;;;;;;;;;;5042810;28;20045;-62
2023/06/20 01:42:19;;;;;;;3.78;3.50;;;;;;;;;;5041972;28;20095;-62
2023/06/20 01:44:46;;;;;;;3.65;3.35;;;;;;;;;;5042854;28;20045;-62
2023/06/20 01:47:14;;;;;;;3.78;3.30;;;;;;;;;;5042845;28;20095;-62
2023/06/20 01:49:41;;;;;;;3.20;2.90;;;;;;;;;;5042128;28;20067;-62
2023/06/20 01:52:10;;;;;;;3.28;2.97;;;;;;;;;;5042471;28;20044;-62
2023/06/20 01:54:37;;;;;;;4.35;3.38;;;;;;;;;;5043493;28;20029;-62
2023/06/20 01:57:03;;;;;;;3.83;3.53;;;;;;;;;;5042690;28;20132;-61
2023/06/20 01:59:30;;;;;;;4.05;3.75;;;;;;;;;;5057884;28;20055;-61
2023/06/20 02:01:57;;;;;;;3.10;2.90;;;;;;;;;;5042940;28;20091;-61
2023/06/20 02:04:25;;;;;;;3.10;2.90;;;;;;;;;;5042048;28;20116;-62
2023/06/20 02:06:51;;;;;;;3.92;3.63;;;;;;;;;;5042669;28;20051;-62
2023/06/20 02:09:18;;;;;;;3.60;3.35;;;;;;;;;;5042481;28;20084;-61
2023/06/20 02:11:47;;;;;;;3.00;2.80;;;;;;;;;;5042118;28;20520;-62
2023/06/20 02:14:14;;;;;;;3.47;3.17;;;;;;;;;;5043087;28;20065;-61
2023/06/20 02:16:41;;;;;;;3.30;3.08;;;;;;;;;;5042697;28;20045;-61
2023/06/20 02:19:07;;;;;;;3.15;2.90;;;;;;;;;;5041697;28;20405;-61
2023/06/20 02:21:38;;;;;;;3.22;3.00;;;;;;;;;;5043335;28;20400;-62
2023/06/20 02:24:07;;;;;;;2.83;2.60;;;;;;;;;;5043264;28;20095;-61
2023/06/20 02:26:37;;;;;;;2.42;2.33;;;;;;;;;;5042494;28;20095;-61
2023/06/20 02:29:05;;;;;;;2.30;2.10;;;;;;;;;;5042830;28;20560;-61
2023/06/20 02:31:35;;;;;;;2.55;2.35;;;;;;;;;;5041447;28;20051;-61
2023/06/20 02:34:04;;;;;;;2.10;1.92;;;;;;;;;;5042595;28;20185;-61
2023/06/20 02:36:30;;;;;;;2.08;1.95;;;;;;;;;;5045756;28;20107;-61
2023/06/20 02:38:57;;;;;;;2.40;2.20;;;;;;;;;;5045605;28;20036;-61
2023/06/20 02:41:26;;;;;;;2.72;2.53;;;;;;;;;;5046308;28;20037;-61
2023/06/20 02:43:52;;;;;;;2.40;2.20;;;;;;;;;;5046165;28;20040;-61
2023/06/20 02:46:21;;;;;;;3.45;2.55;;;;;;;;;;5044963;28;20045;-61
2023/06/20 02:49:10;;;;;;;2.63;2.42;;;;;;;;;;5045859;28;20048;-61
2023/06/20 02:51:45;;;;;;;1.98;1.88;;;;;;;;;;5046486;28;20045;-61
2023/06/20 02:54:30;;;;;;;2.20;2.10;;;;;;;;;;5045179;28;20052;-62
2023/06/20 02:56:58;;;;;;;2.10;1.90;;;;;;;;;;5045696;28;20043;-61
2023/06/20 02:59:26;;;;;;;2.83;2.63;;;;;;;;;;5045567;28;20079;-61
2023/06/20 03:01:56;;;;;;;2.15;1.95;;;;;;;;;;5044976;28;20072;-61
2023/06/20 03:04:23;;;;;;;3.13;2.83;;;;;;;;;;5045688;28;20497;-61
2023/06/20 03:06:51;;;;;;;2.53;2.33;;;;;;;;;;5045141;28;20488;-61
2023/06/20 03:09:18;;;;;;;2.65;2.45;;;;;;;;;;5044925;28;20363;-61
2023/06/20 03:11:44;;;;;;;2.85;2.63;;;;;;;;;;5045267;28;20068;-61
2023/06/20 03:14:13;;;;;;;2.45;2.25;;;;;;;;;;5044544;28;20045;-61
2023/06/20 03:16:42;;;;;;;2.20;2.00;;;;;;;;;;5045456;28;20056;-62
2023/06/20 03:19:08;;;;;;;2.97;2.67;;;;;;;;;;5027099;28;20084;-61
2023/06/20 03:21:34;;;;;;;1.88;1.77;;;;;;;;;;5045008;28;20119;-61
2023/06/20 03:24:00;;;;;;;2.40;2.20;;;;;;;;;;5045084;28;20124;-61
2023/06/20 03:26:26;;;;;;;2.78;2.58;;;;;;;;;;5045086;28;21000;-61
2023/06/20 03:28:52;;;;;;;3.20;2.67;;;;;;;;;;5044455;28;20045;-61
2023/06/20 03:31:18;;;;;;;2.85;2.30;;;;;;;;;;5044762;28;20045;-61
2023/06/20 03:33:44;;;;;;;2.35;2.15;;;;;;;;;;5045140;28;20462;-61
2023/06/20 03:36:10;;;;;;;1.80;1.70;;;;;;;;;;5044351;28;20041;-61
2023/06/20 03:38:36;;;;;;;2.45;1.83;;;;;;;;;;5045961;28;20037;-61
2023/06/20 03:41:02;;;;;;;2.40;2.20;;;;;;;;;;5045653;28;20580;-61
2023/06/20 03:43:29;;;;;;;2.50;2.30;;;;;;;;;;5043971;28;20419;-61
2023/06/20 03:45:55;;;;;;;2.30;2.10;;;;;;;;;;5044657;28;20045;-61
2023/06/20 03:48:21;;;;;;;2.95;2.20;;;;;;;;;;5044098;28;20557;-61
2023/06/20 03:50:47;;;;;;;2.55;2.35;;;;;;;;;;5044830;28;20053;-61
2023/06/20 03:53:13;;;;;;;2.53;2.33;;;;;;;;;;5044761;28;20045;-61
2023/06/20 03:55:39;;;;;;;2.38;2.17;;;;;;;;;;5045028;28;20126;-61
2023/06/20 03:58:05;;;;;;;2.45;2.25;;;;;;;;;;5044697;28;20041;-61
2023/06/20 04:00:31;;;;;;;2.35;2.15;;;;;;;;;;5044747;28;20503;-61
2023/06/20 04:02:57;;;;;;;2.15;2.05;;;;;;;;;;5043984;28;20048;-61
2023/06/20 04:05:23;;;;;;;2.25;2.05;;;;;;;;;;5044609;28;20132;-61
2023/06/20 04:07:49;;;;;;;2.22;2.08;;;;;;;;;;5044820;28;20129;-61
2023/06/20 04:10:15;;;;;;;2.20;2.00;;;;;;;;;;5025590;28;20091;-61
2023/06/20 04:12:41;;;;;;;2.20;2.00;;;;;;;;;;5044775;28;20061;-61
2023/06/20 04:15:08;;;;;;;1.83;1.73;;;;;;;;;;5044839;28;20052;-61
2023/06/20 04:17:34;;;;;;;2.40;2.20;;;;;;;;;;5044509;28;20112;-61
2023/06/20 04:20:00;;;;;;;2.13;2.03;;;;;;;;;;5044238;28;20052;-61
2023/06/20 04:22:27;;;;;;;2.28;2.08;;;;;;;;;;5044357;28;20044;-61
2023/06/20 04:24:55;;;;;;;2.03;1.92;;;;;;;;;;5043551;28;20542;-61
2023/06/20 04:27:22;;;;;;;2.25;2.15;;;;;;;;;;5043768;28;20072;-61
2023/06/20 04:29:48;;;;;;;3.05;2.63;;;;;;;;;;5044266;28;20052;-61
2023/06/20 04:32:14;;;;;;;2.83;2.63;;;;;;;;;;5043469;28;20095;-61
2023/06/20 04:34:40;;;;;;;2.55;2.35;;;;;;;;;;5043821;28;20049;-61
2023/06/20 04:37:06;;;;;;;2.47;2.28;;;;;;;;;;5044405;28;20075;-61
2023/06/20 04:39:32;;;;;;;2.53;2.33;;;;;;;;;;5043496;28;20593;-61
2023/06/20 04:41:58;;;;;;;2.47;2.28;;;;;;;;;;5043566;28;20527;-61
2023/06/20 04:44:24;;;;;;;2.20;2.00;;;;;;;;;;5043565;28;20461;-62
2023/06/20 04:46:50;;;;;;;2.67;2.17;;;;;;;;;;5043108;28;20056;-62
2023/06/20 04:49:16;;;;;;;2.30;2.10;;;;;;;;;;5043328;28;20037;-62
2023/06/20 04:51:42;;;;;;;2.78;2.53;;;;;;;;;;5043739;28;20069;-62
2023/06/20 04:54:08;;;;;;;1.92;1.83;;;;;;;;;;5042694;28;20083;-62
2023/06/20 04:56:40;;;;;;;2.17;2.08;;;;;;;;;;5044090;28;20053;-62
2023/06/20 04:59:06;;;;;;;1.90;1.80;;;;;;;;;;5044297;28;20076;-62
2023/06/20 05:01:32;;;;;;;1.70;1.60;;;;;;;;;;5043012;28;20548;-61
2023/06/20 05:03:58;;;;;;;2.78;1.70;;;;;;;;;;5043444;28;20072;-61
2023/06/20 05:06:25;;;;;;;2.00;1.90;;;;;;;;;;5042459;28;20124;-61
2023/06/20 05:08:52;;;;;;;2.40;2.10;;;;;;;;;;5043482;28;20029;-61
2023/06/20 05:11:18;;;;;;;2.15;1.92;;;;;;;;;;5042751;28;20513;-61
2023/06/20 05:13:44;;;;;;;2.35;2.15;;;;;;;;;;5042853;28;20075;-61
2023/06/20 05:16:10;;;;;;;2.05;1.88;;;;;;;;;;5043009;28;20509;-61
2023/06/20 05:18:36;;;;;;;2.70;2.10;;;;;;;;;;5043819;28;20047;-61
2023/06/20 05:21:02;;;;;;;1.83;1.73;;;;;;;;;;5058357;28;20037;-61
2023/06/20 05:23:28;;;;;;;1.83;1.73;;;;;;;;;;5042961;28;20512;-62
2023/06/20 05:25:54;;;;;;;1.77;1.67;;;;;;;;;;5043059;28;20037;-61
2023/06/20 05:28:21;;;;;;;1.73;1.63;;;;;;;;;;5041921;28;20048;-61
2023/06/20 05:30:47;;;;;;;1.70;1.60;;;;;;;;;;5042826;28;20098;-61
2023/06/20 05:33:13;;;;;;;1.95;1.85;;;;;;;;;;5042486;28;20044;-61
2023/06/20 05:35:41;;;;;;;1.55;1.45;;;;;;;;;;5042385;28;20646;-62
2023/06/20 05:38:07;;;;;;;1.90;1.80;;;;;;;;;;5043032;28;20045;-61
2023/06/20 05:40:33;;;;;;;2.58;2.38;;;;;;;;;;5043392;28;20391;-61
2023/06/20 05:42:59;;;;;;;2.10;1.90;;;;;;;;;;5042191;28;20528;-62
2023/06/20 05:45:25;;;;;;;2.05;1.95;;;;;;;;;;5042577;28;20076;-61
2023/06/20 05:47:51;;;;;;;2.50;2.30;;;;;;;;;;5042987;28;20052;-61
2023/06/20 05:50:17;;;;;;;2.63;2.42;;;;;;;;;;5042276;28;20048;-61
2023/06/20 05:52:43;;;;;;;2.10;2.00;;;;;;;;;;5043191;28;20041;-61
2023/06/20 05:55:09;;;;;;;2.15;1.92;;;;;;;;;;5042517;28;20381;-61
2023/06/20 05:57:37;;;;;;;1.90;1.80;;;;;;;;;;5025292;28;20363;-61
2023/06/20 06:00:11;;;;;;;2.90;2.70;;;;;;;;;;5043205;28;20102;-61
2023/06/20 06:02:37;;;;;;;2.85;2.58;;;;;;;;;;5057728;28;20111;-61
2023/06/20 06:05:03;;;;;;;2.95;2.75;;;;;;;;;;5043264;28;20067;-61
2023/06/20 06:07:30;;;;;;;3.15;2.90;;;;;;;;;;5042592;28;20043;-61
2023/06/20 06:09:56;;;;;;;3.67;3.38;;;;;;;;;;5043130;28;20041;-61
2023/06/20 06:12:22;;;;;;;3.40;3.10;;;;;;;;;;5046384;28;20088;-61
2023/06/20 06:14:51;;;;;;;2.88;2.67;;;;;;;;;;5046965;28;20556;-61
2023/06/20 06:17:17;;;;;;;2.45;2.35;;;;;;;;;;5045767;28;20053;-61
2023/06/20 06:19:43;;;;;;;2.63;2.42;;;;;;;;;;5046966;28;20090;-62
2023/06/20 06:22:09;;;;;;;3.10;2.90;;;;;;;;;;5046539;28;20412;-62
2023/06/20 06:24:36;;;;;;;2.85;2.65;;;;;;;;;;5046236;28;20250;-62
2023/06/20 06:27:03;;;;;;;3.70;3.35;;;;;;;;;;5046215;28;20049;-62
2023/06/20 06:29:29;;;;;;;2.60;2.40;;;;;;;;;;5046548;28;20131;-62
2023/06/20 06:31:58;;;;;;;2.85;2.65;;;;;;;;;;5046397;28;20116;-62
2023/06/20 06:34:26;;;;;;;3.03;2.70;;;;;;;;;;5046437;28;20377;-62
2023/06/20 06:36:52;;;;;;;2.33;2.13;;;;;;;;;;5046802;28;20048;-62
2023/06/20 06:39:18;;;;;;;2.85;2.65;;;;;;;;;;5045344;28;20049;-61
2023/06/20 06:41:48;;;;;;;2.63;2.42;;;;;;;;;;5046269;28;20055;-62
2023/06/20 06:44:15;;;;;;;2.25;2.15;;;;;;;;;;5046002;28;20559;-62
2023/06/20 06:46:41;;;;;;;2.47;2.30;;;;;;;;;;5045401;28;20588;-61
2023/06/20 06:49:08;;;;;;;2.05;1.95;;;;;;;;;;5046444;28;20390;-61
2023/06/20 06:51:34;;;;;;;4.28;3.97;;;;;;;;;;5046539;28;20052;-61
2023/06/20 06:54:00;;;;;;;2.85;2.65;;;;;;;;;;5045534;28;20041;-61
2023/06/20 06:56:26;;;;;;;4.80;4.40;;;;;;;;;;5045553;28;20095;-61
2023/06/20 06:58:56;;;;;;;4.22;3.83;;;;;;;;;;5045342;28;20136;-61
2023/06/20 07:01:22;;;;;;;5.72;3.92;;;;;;;;;;5045471;28;20044;-62
2023/06/20 07:03:48;;;;;;;4.85;4.35;;;;;;;;;;5045817;28;20439;-62
2023/06/20 07:06:14;;;;;;;4.22;3.92;;;;;;;;;;5044573;28;20102;-62
2023/06/20 07:08:40;;;;;;;3.35;3.15;;;;;;;;;;5045572;28;20041;-62
2023/06/20 07:11:06;;;;;;;3.60;3.30;;;;;;;;;;5045649;28;20484;-62
2023/06/20 07:13:32;;;;;;;4.55;4.15;;;;;;;;;;5045242;28;20053;-62
2023/06/20 07:15:58;;;;;;;4.90;4.47;;;;;;;;;;5045431;28;20060;-62
2023/06/20 07:18:24;;;;;;;3.90;3.60;;;;;;;;;;5044992;28;20116;-62
2023/06/20 07:20:50;;;;;;;3.78;3.47;;;;;;;;;;5044219;28;20084;-62
2023/06/20 07:23:16;;;;;;;3.30;3.10;;;;;;;;;;5044446;28;20083;-62
2023/06/20 07:25:42;;;;;;;4.45;4.00;;;;;;;;;;5045130;28;20563;-61
2023/06/20 07:28:08;;;;;;;3.05;2.85;;;;;;;;;;5044258;28;20049;-61
2023/06/20 07:30:34;;;;;;;3.30;3.10;;;;;;;;;;5045789;28;20468;-61
2023/06/20 07:33:00;;;;;;;5.05;4.65;;;;;;;;;;5045310;28;20102;-62
2023/06/20 07:35:26;;;;;;;2.95;2.75;;;;;;;;;;5044009;28;20037;-62
2023/06/20 07:37:52;;;;;;;4.22;3.92;;;;;;;;;;5045031;28;20048;-62
2023/06/20 07:40:18;;;;;;;5.85;5.22;;;;;;;;;;5045003;28;20132;-62
2023/06/20 07:42:44;;;;;;;4.40;4.00;;;;;;;;;;5044692;28;20080;-62
2023/06/20 07:45:10;;;;;;;3.67;3.38;;;;;;;;;;5044773;28;20087;-63
2023/06/20 07:47:36;;;;;;;3.30;3.10;;;;;;;;;;5045351;28;20455;-62
2023/06/20 07:50:03;;;;;;;3.40;3.10;;;;;;;;;;5044699;28;20045;-63
2023/06/20 07:52:31;;;;;;;3.45;3.15;;;;;;;;;;5044485;28;20497;-63
2023/06/20 07:54:57;;;;;;;3.50;3.30;;;;;;;;;;5045163;28;20306;-62
2023/06/20 07:57:23;;;;;;;3.30;2.97;;;;;;;;;;5044179;28;20041;-62
2023/06/20 07:59:50;;;;;;;4.95;3.50;;;;;;;;;;5044945;28;20048;-62
2023/06/20 08:02:16;;;;;;;4.05;3.75;;;;;;;;;;5043574;28;20040;-62
2023/06/20 08:04:42;;;;;;;4.28;3.85;;;;;;;;;;5044520;28;20041;-62
2023/06/20 08:07:08;;;;;;;5.15;4.63;;;;;;;;;;5044275;28;20138;-62
2023/06/20 08:09:34;;;;;;;4.40;4.00;;;;;;;;;;5044276;28;20059;-62
2023/06/20 08:12:00;;;;;;;5.45;4.95;;;;;;;;;;5044226;28;20578;-62
2023/06/20 08:14:26;;;;;;;4.00;3.60;;;;;;;;;;5044002;28;20048;-62
2023/06/20 08:16:51;;;;;;;4.32;4.03;;;;;;;;;;5043644;28;20087;-62
2023/06/20 08:19:18;;;;;;;4.75;4.35;;;;;;;;;;5044342;28;20044;-62
2023/06/20 08:21:44;;;;;;;6.07;5.50;;;;;;;;;;5044337;28;20049;-62
2023/06/20 08:24:10;;;;;;;6.50;5.90;;;;;;;;;;5043317;28;20102;-63
2023/06/20 08:26:36;;;;;;;5.55;5.15;;;;;;;;;;5044644;28;20068;-62
2023/06/20 08:29:02;;;;;;;5.68;5.18;;;;;;;;;;5044261;28;20493;-62
2023/06/20 08:31:40;;;;;;;4.43;4.03;;;;;;;;;;5043421;28;20049;-62
2023/06/20 08:34:06;;;;;;;5.03;4.68;;;;;;;;;;5044443;28;20135;-63
2023/06/20 08:36:32;;;;;;;4.30;4.00;;;;;;;;;;5044190;28;20078;-62
2023/06/20 08:39:00;;;;;;;5.70;5.18;;;;;;;;;;5043556;28;20033;-62
2023/06/20 08:41:26;;;;;;;3.85;3.55;;;;;;;;;;5043799;28;20045;-62
2023/06/20 08:43:53;;;;;;;5.68;5.28;;;;;;;;;;5043924;28;20066;-62
2023/06/20 08:46:19;;;;;;;5.70;4.90;;;;;;;;;;5043002;28;20115;-63
2023/06/20 08:48:46;;;;;;;5.55;5.05;;;;;;;;;;5043651;28;20045;-62
2023/06/20 08:51:15;;;;;;;5.70;5.20;;;;;;;;;;5043418;28;20076;-63
2023/06/20 08:53:43;;;;;;;5.80;5.30;;;;;;;;;;5043733;28;20098;-62
2023/06/20 08:56:10;;;;;;;4.97;4.57;;;;;;;;;;5043410;28;20631;-63
2023/06/20 08:58:36;;;;;;;5.85;5.35;;;;;;;;;;5043670;28;20426;-62
2023/06/20 09:01:02;;;;;;;5.13;4.80;;;;;;;;;;5043942;28;20410;-62
2023/06/20 09:03:28;;;;;;;4.53;4.13;;;;;;;;;;5043191;28;20550;-62
2023/06/20 09:05:54;;;;;;;4.10;3.80;;;;;;;;;;5042739;28;20519;-62
2023/06/20 09:08:20;;;;;;;5.13;4.72;;;;;;;;;;5043290;28;20080;-62
2023/06/20 09:10:46;;;;;;;4.70;4.40;;;;;;;;;;5043265;28;20134;-62
2023/06/20 09:13:13;;;;;;;4.72;4.22;;;;;;;;;;5042466;28;20049;-62
2023/06/20 09:15:39;;;;;;;4.38;3.97;;;;;;;;;;5043177;28;20049;-63
2023/06/20 09:18:06;;;;;;;4.40;4.10;;;;;;;;;;5043546;28;20113;-62
2023/06/20 09:20:32;;;;;;;5.68;5.28;;;;;;;;;;5043076;28;20054;-62
2023/06/20 09:22:59;;;;;;;5.13;4.65;;;;;;;;;;5043266;28;20048;-62
2023/06/20 09:25:26;;;;;;;5.55;5.05;;;;;;;;;;5043014;28;20051;-62
2023/06/20 09:27:53;;;;;;;5.32;4.80;;;;;;;;;;5042396;28;20044;-62
2023/06/20 09:30:19;;;;;;;4.80;4.40;;;;;;;;;;5042675;28;20036;-62
2023/06/20 09:32:45;;;;;;;5.95;5.43;;;;;;;;;;5043062;28;20051;-62
2023/06/20 09:35:12;;;;;;;5.65;5.25;;;;;;;;;;5042154;28;20049;-62
2023/06/20 09:37:41;;;;;;;4.15;3.85;;;;;;;;;;5043211;28;20041;-62
2023/06/20 09:40:12;;;;;;;3.63;3.42;;;;;;;;;;5042828;28;20606;-62
2023/06/20 09:42:39;;;;;;;5.05;4.55;;;;;;;;;;5042282;28;20048;-62
2023/06/20 09:45:05;;;;;;;3.88;3.58;;;;;;;;;;5057930;28;20684;-62
2023/06/20 09:47:32;;;;;;;4.70;4.30;;;;;;;;;;5041976;28;20393;-63
2023/06/20 09:49:58;;;;;;;5.28;4.88;;;;;;;;;;5042984;28;20496;-63
2023/06/20 09:52:32;;;;;;;5.97;5.47;;;;;;;;;;5042723;28;20053;-63
2023/06/20 09:55:00;;;;;;;4.80;4.40;;;;;;;;;;5042308;28;20131;-63
2023/06/20 09:57:34;;;;;;;5.75;5.25;;;;;;;;;;5024649;28;20117;-63
2023/06/20 10:00:00;;;;;;;4.03;3.70;;;;;;;;;;5043007;28;20041;-63
2023/06/20 10:02:28;;;;;;;4.00;3.70;;;;;;;;;;5042053;28;20176;-63
2023/06/20 10:04:55;;;;;;;4.68;4.35;;;;;;;;;;5042879;28;20041;-63
2023/06/20 10:07:22;;;;;;;5.20;4.80;;;;;;;;;;5042272;28;20415;-63
2023/06/20 10:09:49;;;;;;;4.20;3.90;;;;;;;;;;5042330;28;20041;-63
2023/06/20 10:12:16;;;;;;;4.97;4.60;;;;;;;;;;5041983;28;20068;-62
2023/06/20 10:14:42;;;;;;;3.38;3.17;;;;;;;;;;5042944;28;20091;-62
2023/06/20 10:17:09;;;;;;;4.65;4.25;;;;;;;;;;5041730;28;20060;-62
2023/06/20 10:19:48;;;;;;;4.47;4.07;;;;;;;;;;5025670;28;20154;-62
2023/06/20 10:22:14;;;;;;;4.43;4.13;;;;;;;;;;5042249;28;20514;-62
2023/06/20 10:24:41;;;;;;;4.00;3.70;;;;;;;;;;5041911;28;20049;-62
2023/06/20 10:27:07;;;;;;;3.60;3.40;;;;;;;;;;5042587;28;20063;-62
2023/06/20 10:29:42;;;;;;;4.40;4.00;;;;;;;;;;5043367;28;20099;-63
2023/06/20 10:32:12;;;;;;;5.13;4.63;;;;;;;;;;5042169;28;20116;-63
2023/06/20 10:34:41;;;;;;;4.32;3.95;;;;;;;;;;5042547;28;20048;-63
2023/06/20 10:37:17;;;;;;;4.03;3.30;;;;;;;;;;5042066;28;20142;-63
2023/06/20 10:39:52;;;;;;;4.28;3.85;;;;;;;;;;5043029;28;20056;-63
2023/06/20 10:42:31;;;;;;;3.67;3.30;;;;;;;;;;5042424;28;20119;-63
2023/06/20 10:45:16;;;;;;;2.90;2.70;;;;;;;;;;5041953;28;20792;-63
2023/06/20 10:47:42;;;;;;;3.25;3.00;;;;;;;;;;5042300;28;20072;-63
2023/06/20 10:50:10;;;;;;;3.38;3.08;;;;;;;;;;5042370;28;20079;-63
2023/06/20 10:52:37;;;;;;;3.55;3.35;;;;;;;;;;5042471;28;20041;-63
2023/06/20 10:55:04;;;;;;;3.45;3.20;;;;;;;;;;5043445;28;20071;-63
2023/06/20 10:57:29;;;;;;;4.28;3.50;;;;;;;;;;5045352;28;20037;-63
2023/06/20 10:59:55;;;;;;;2.90;2.70;;;;;;;;;;5045306;28;20444;-63
2023/06/20 11:02:22;;;;;;;4.60;4.10;;;;;;;;;;5027586;28;20055;-63
2023/06/20 11:04:48;;;;;;;3.90;3.63;;;;;;;;;;5045852;28;20048;-63
2023/06/20 11:07:14;;;;;;;3.75;3.45;;;;;;;;;;5044792;28;20464;-63
2023/06/20 11:09:40;;;;;;;3.13;2.92;;;;;;;;;;5045639;28;20454;-63
2023/06/20 11:12:10;;;;;;;3.42;3.20;;;;;;;;;;5045175;28;20116;-63
2023/06/20 11:14:36;;;;;;;4.00;3.70;;;;;;;;;;5046092;28;20420;-63
2023/06/20 11:17:02;;;;;;;3.58;3.30;;;;;;;;;;5045894;28;20559;-63
2023/06/20 11:19:28;;;;;;;3.35;2.63;;;;;;;;;;5044707;28;20618;-63
2023/06/20 11:21:54;;;;;;;3.70;3.33;;;;;;;;;;5045577;28;20423;-61
2023/06/20 11:24:21;;;;;;;3.75;3.55;;;;;;;;;;5044985;28;20523;-61
2023/06/20 11:26:47;;;;;;;3.83;3.53;;;;;;;;;;5044913;28;20051;-61
2023/06/20 11:29:13;;;;;;;3.03;2.75;;;;;;;;;;5044939;28;20033;-61
2023/06/20 11:31:39;;;;;;;3.72;3.50;;;;;;;;;;5045524;28;20488;-61
2023/06/20 11:34:06;;;;;;;3.40;3.10;;;;;;;;;;5045241;28;20052;-61
2023/06/20 11:36:36;;;;;;;4.38;4.00;;;;;;;;;;5045479;28;20044;-61
2023/06/20 11:39:05;;;;;;;3.45;3.15;;;;;;;;;;5045285;28;20378;-63
2023/06/20 11:41:32;;;;;;;4.20;3.90;;;;;;;;;;5044206;28;20168;-62
2023/06/20 11:43:58;;;;;;;3.63;3.33;;;;;;;;;;5045156;28;20527;-63
2023/06/20 11:46:24;;;;;;;3.85;3.55;;;;;;;;;;5044807;28;20048;-63
2023/06/20 11:48:51;;;;;;;3.70;3.40;;;;;;;;;;5044376;28;20072;-63
2023/06/20 11:51:20;;;;;;;3.40;3.20;;;;;;;;;;5044718;28;20146;-63
2023/06/20 11:53:46;;;;;;;4.68;3.53;;;;;;;;;;5044942;28;20166;-63
2023/06/20 11:56:14;;;;;;;4.22;3.92;;;;;;;;;;5044040;28;20041;-63
2023/06/20 11:58:41;;;;;;;4.93;3.83;;;;;;;;;;5044708;28;20047;-63
2023/06/20 12:01:14;;;;;;;3.70;3.45;;;;;;;;;;5044947;28;20279;-63
2023/06/20 12:03:44;;;;;;;3.67;3.45;;;;;;;;;;5044974;28;20044;-63
2023/06/20 12:06:29;;;;;;;3.58;3.28;;;;;;;;;;5044267;28;20505;-62
2023/06/20 12:08:57;;;;;;;3.90;3.60;;;;;;;;;;5043026;28;20178;-62
2023/06/20 12:11:23;;;;;;;4.18;3.78;;;;;;;;;;5044066;28;20053;-62
2023/06/20 12:13:49;;;;;;;3.92;3.63;;;;;;;;;;5044511;28;20121;-62
2023/06/20 12:16:15;;;;;;;4.35;4.00;;;;;;;;;;5043438;28;20668;-62
2023/06/20 12:18:42;;;;;;;3.42;3.22;;;;;;;;;;5044884;28;20053;-62
2023/06/20 12:21:08;;;;;;;3.67;3.42;;;;;;;;;;5044295;28;20048;-63
2023/06/20 12:23:34;;;;;;;4.35;4.00;;;;;;;;;;5044062;28;20477;-64
2023/06/20 12:26:00;;;;;;;4.30;3.90;;;;;;;;;;5044508;28;20385;-63
2023/06/20 12:28:26;;;;;;;3.47;3.20;;;;;;;;;;5044093;28;20080;-63
2023/06/20 12:30:52;;;;;;;4.53;3.83;;;;;;;;;;5043916;28;20079;-63
2023/06/20 12:33:18;;;;;;;3.70;3.40;;;;;;;;;;5044695;28;20632;-63
2023/06/20 12:35:44;;;;;;;3.03;2.83;;;;;;;;;;5045566;28;20182;-63
2023/06/20 12:38:10;;;;;;;3.30;3.10;;;;;;;;;;5044397;28;20045;-63
2023/06/20 12:40:36;;;;;;;3.28;2.97;;;;;;;;;;5044915;28;20048;-63
2023/06/20 12:43:03;;;;;;;3.47;3.28;;;;;;;;;;5044410;28;20045;-63
2023/06/20 12:45:29;;;;;;;4.70;4.38;;;;;;;;;;5042951;28;20045;-63
2023/06/20 12:47:55;;;;;;;4.43;4.13;;;;;;;;;;5044267;28;20101;-63
2023/06/20 12:50:21;;;;;;;4.45;4.15;;;;;;;;;;5043415;28;20497;-63
2023/06/20 12:52:47;;;;;;;4.15;3.85;;;;;;;;;;5043581;28;20360;-63
2023/06/20 12:55:13;;;;;;;3.90;3.60;;;;;;;;;;5043863;28;20041;-63
2023/06/20 12:57:39;;;;;;;3.67;3.38;;;;;;;;;;5025439;28;20090;-63
2023/06/20 13:00:06;;;;;;;3.95;3.10;;;;;;;;;;5044474;28;20056;-63
2023/06/20 13:02:33;;;;;;;3.53;3.30;;;;;;;;;;5043964;28;20044;-62
2023/06/20 13:04:59;;;;;;;4.10;3.80;;;;;;;;;;5043172;28;20052;-63
2023/06/20 13:07:25;;;;;;;3.80;3.42;;;;;;;;;;5043270;28;20157;-63
2023/06/20 13:09:51;;;;;;;3.45;3.25;;;;;;;;;;5043743;28;20193;-63
2023/06/20 13:12:18;;;;;;;3.28;3.00;;;;;;;;;;5042593;28;20052;-63
2023/06/20 13:14:44;;;;;;;3.30;3.10;;;;;;;;;;5043406;28;20049;-63
2023/06/20 13:17:10;;;;;;;3.20;3.00;;;;;;;;;;5043404;28;20036;-63
2023/06/20 13:19:36;;;;;;;3.25;3.05;;;;;;;;;;5042371;28;20084;-63
2023/06/20 13:22:02;;;;;;;2.22;2.13;;;;;;;;;;5044016;28;20128;-63
2023/06/20 13:24:29;;;;;;;2.78;2.58;;;;;;;;;;5044226;28;20363;-63
2023/06/20 13:26:55;;;;;;;2.88;2.67;;;;;;;;;;5042758;28;20048;-63
2023/06/20 13:29:21;;;;;;;2.70;2.50;;;;;;;;;;5042773;28;20072;-63
2023/06/20 13:31:48;;;;;;;3.20;2.90;;;;;;;;;;5043235;28;20520;-63
2023/06/20 13:34:14;;;;;;;2.90;2.70;;;;;;;;;;5042444;28;20066;-63
2023/06/20 13:36:40;;;;;;;3.00;2.72;;;;;;;;;;5043305;28;20128;-63
2023/06/20 13:39:06;;;;;;;2.63;2.47;;;;;;;;;;5043809;28;20045;-63
2023/06/20 13:41:32;;;;;;;4.85;3.20;;;;;;;;;;5042417;28;20129;-63
2023/06/20 13:43:58;;;;;;;4.18;3.17;;;;;;;;;;5042971;28;20041;-63
2023/06/20 13:46:24;;;;;;;3.65;3.42;;;;;;;;;;5042784;28;20174;-63
2023/06/20 13:48:50;;;;;;;3.67;3.47;;;;;;;;;;5042436;28;20040;-63
2023/06/20 13:51:17;;;;;;;3.97;3.67;;;;;;;;;;5043414;28;20225;-63
2023/06/20 13:53:45;;;;;;;4.22;3.92;;;;;;;;;;5043366;28;20055;-63
2023/06/20 13:56:11;;;;;;;3.67;3.45;;;;;;;;;;5043664;28;20116;-64
2023/06/20 13:58:38;;;;;;;3.40;3.20;;;;;;;;;;5044978;28;20040;-63
2023/06/20 14:01:06;;;;;;;3.42;3.22;;;;;;;;;;5044315;28;20541;-63
2023/06/20 14:03:32;;;;;;;3.97;3.78;;;;;;;;;;5045030;28;20049;-63
2023/06/20 14:05:58;;;;;;;3.67;3.38;;;;;;;;;;5045298;28;20554;-63
2023/06/20 14:08:24;;;;;;;3.63;3.33;;;;;;;;;;5044090;28;20041;-63
2023/06/20 14:10:50;;;;;;;4.68;4.22;;;;;;;;;;5045299;28;20064;-63
2023/06/20 14:13:16;;;;;;;3.38;3.17;;;;;;;;;;5045061;28;20045;-63
2023/06/20 14:15:42;;;;;;;3.53;3.33;;;;;;;;;;5044770;28;20040;-63
2023/06/20 14:18:08;;;;;;;3.33;3.13;;;;;;;;;;5045100;28;20155;-63
2023/06/20 14:20:36;;;;;;;3.42;3.22;;;;;;;;;;5045944;28;20059;-63
2023/06/20 14:23:02;;;;;;;3.80;3.50;;;;;;;;;;5044465;28;20045;-63
2023/06/20 14:25:28;;;;;;;3.60;3.30;;;;;;;;;;5044530;28;20277;-63
2023/06/20 14:27:54;;;;;;;3.58;3.28;;;;;;;;;;5045438;28;20045;-63
2023/06/20 14:30:20;;;;;;;3.10;2.90;;;;;;;;;;5044068;28;20052;-63
2023/06/20 14:32:46;;;;;;;4.60;3.38;;;;;;;;;;5048896;28;20113;-63
2023/06/20 14:35:12;;;;;;;3.90;3.60;;;;;;;;;;5048421;28;20488;-63
2023/06/20 14:37:38;;;;;;;3.30;3.10;;;;;;;;;;5049182;28;20128;-63
2023/06/20 14:40:04;;;;;;;3.30;3.10;;;;;;;;;;5049695;28;20464;-63
2023/06/20 14:42:30;;;;;;;3.28;3.08;;;;;;;;;;5048593;28;20419;-63